sensor_id;sensor_type;location;lat;lon;timestamp;pressure;altitude;pressure_sealevel;temperature;humidity
49393;BME280;35268;42.642;23.308;2022-12-04T00:01:18;94799.06;;;4.38;74.53
49393;BME280;35268;42.642;23.308;2022-12-04T00:03:44;94800.38;;;4.36;74.81
49393;BME280;35268;42.642;23.308;2022-12-04T00:06:15;94808.28;;;4.36;74.76
49393;BME280;35268;42.642;23.308;2022-12-04T00:08:41;94810.94;;;4.36;74.43
49393;BME280;35268;42.642;23.308;2022-12-04T00:11:08;94802.72;;;4.32;74.35
49393;BME280;35268;42.642;23.308;2022-12-04T00:13:35;94815.13;;;4.32;74.70
49393;BME280;35268;42.642;23.308;2022-12-04T00:16:04;94823.28;;;4.30;75.20
49393;BME280;35268;42.642;23.308;2022-12-04T00:18:29;94822.97;;;4.27;75.07
49393;BME280;35268;42.642;23.308;2022-12-04T00:20:55;94822.97;;;4.27;75.13
49393;BME280;35268;42.642;23.308;2022-12-04T00:23:20;94825.06;;;4.25;75.55
49393;BME280;35268;42.642;23.308;2022-12-04T00:25:46;94823.47;;;4.24;75.64
49393;BME280;35268;42.642;23.308;2022-12-04T00:28:16;94825.56;;;4.21;76.05
49393;BME280;35268;42.642;23.308;2022-12-04T00:30:43;94825.50;;;4.16;75.67
49393;BME280;35268;42.642;23.308;2022-12-04T00:33:09;94822.63;;;4.18;75.68
49393;BME280;35268;42.642;23.308;2022-12-04T00:35:35;94825.50;;;4.16;75.69
49393;BME280;35268;42.642;23.308;2022-12-04T00:38:01;94833.94;;;4.13;75.43
49393;BME280;35268;42.642;23.308;2022-12-04T00:40:27;94825.47;;;4.11;75.34
49393;BME280;35268;42.642;23.308;2022-12-04T00:42:53;94825.97;;;4.08;75.42
49393;BME280;35268;42.642;23.308;2022-12-04T00:45:18;94813.81;;;4.07;75.48
49393;BME280;35268;42.642;23.308;2022-12-04T00:47:44;94821.75;;;4.07;75.40
49393;BME280;35268;42.642;23.308;2022-12-04T00:50:10;94826.47;;;4.05;75.35
49393;BME280;35268;42.642;23.308;2022-12-04T00:52:35;94820.34;;;3.99;75.34
49393;BME280;35268;42.642;23.308;2022-12-04T00:55:01;94823.75;;;4.00;75.43
49393;BME280;35268;42.642;23.308;2022-12-04T00:57:26;94825.84;;;3.98;75.44
49393;BME280;35268;42.642;23.308;2022-12-04T00:59:52;94822.72;;;4.01;75.51
49393;BME280;35268;42.642;23.308;2022-12-04T01:02:17;94820.66;;;4.03;75.43
49393;BME280;35268;42.642;23.308;2022-12-04T01:04:43;94819.25;;;3.95;75.52
49393;BME280;35268;42.642;23.308;2022-12-04T01:07:08;94821.88;;;3.95;75.52
49393;BME280;35268;42.642;23.308;2022-12-04T01:09:33;94811.81;;;3.92;75.64
49393;BME280;35268;42.642;23.308;2022-12-04T01:11:59;94821.09;;;3.95;75.55
49393;BME280;35268;42.642;23.308;2022-12-04T01:14:24;94821.09;;;3.95;75.65
49393;BME280;35268;42.642;23.308;2022-12-04T01:16:50;94819.47;;;3.94;75.64
49393;BME280;35268;42.642;23.308;2022-12-04T01:19:15;94813.97;;;3.95;75.47
49393;BME280;35268;42.642;23.308;2022-12-04T01:21:41;94814.19;;;3.94;75.61
49393;BME280;35268;42.642;23.308;2022-12-04T01:24:07;94804.13;;;3.91;75.73
49393;BME280;35268;42.642;23.308;2022-12-04T01:26:33;94808.94;;;3.94;75.65
49393;BME280;35268;42.642;23.308;2022-12-04T01:28:59;94806.53;;;3.92;75.88
49393;BME280;35268;42.642;23.308;2022-12-04T01:31:25;94799.69;;;3.91;75.73
49393;BME280;35268;42.642;23.308;2022-12-04T01:33:50;94799.41;;;3.93;76.10
49393;BME280;35268;42.642;23.308;2022-12-04T01:36:19;94801.56;;;3.96;76.27
49393;BME280;35268;42.642;23.308;2022-12-04T01:38:45;94809.72;;;3.94;76.19
49393;BME280;35268;42.642;23.308;2022-12-04T01:41:12;94818.19;;;3.96;76.52
49393;BME280;35268;42.642;23.308;2022-12-04T01:43:38;94816.91;;;3.99;76.56
49393;BME280;35268;42.642;23.308;2022-12-04T01:46:05;94813.44;;;3.98;76.64
49393;BME280;35268;42.642;23.308;2022-12-04T01:48:33;94801.63;;;4.01;76.61
49393;BME280;35268;42.642;23.308;2022-12-04T01:53:50;94803.22;;;4.02;76.18
49393;BME280;35268;42.642;23.308;2022-12-04T01:56:19;94804.81;;;4.03;76.15
49393;BME280;35268;42.642;23.308;2022-12-04T01:58:48;94800.09;;;4.05;75.82
49393;BME280;35268;42.642;23.308;2022-12-04T02:01:15;94805.84;;;4.02;75.86
49393;BME280;35268;42.642;23.308;2022-12-04T02:03:41;94795.28;;;4.02;75.73
49393;BME280;35268;42.642;23.308;2022-12-04T02:06:07;94792.91;;;4.00;75.71
49393;BME280;35268;42.642;23.308;2022-12-04T02:08:33;94791.56;;;3.98;75.87
49393;BME280;35268;42.642;23.308;2022-12-04T02:11:26;94792.91;;;4.00;76.10
49393;BME280;35268;42.642;23.308;2022-12-04T02:14:14;94788.69;;;3.99;76.22
49393;BME280;35268;42.642;23.308;2022-12-04T02:22:28;94790.00;;;4.02;76.72
49393;BME280;35268;42.642;23.308;2022-12-04T02:25:05;94792.66;;;4.02;76.86
49393;BME280;35268;42.642;23.308;2022-12-04T02:30:13;94786.84;;;4.00;76.99
49393;BME280;35268;42.642;23.308;2022-12-04T02:32:52;94772.53;;;3.96;76.84
49393;BME280;35268;42.642;23.308;2022-12-04T02:35:33;94777.03;;;3.95;77.19
49393;BME280;35268;42.642;23.308;2022-12-04T02:38:15;94779.97;;;3.99;77.28
49393;BME280;35268;42.642;23.308;2022-12-04T02:43:26;94777.88;;;4.01;77.26
49393;BME280;35268;42.642;23.308;2022-12-04T02:45:58;94783.88;;;3.96;77.56
49393;BME280;35268;42.642;23.308;2022-12-04T02:48:27;94773.09;;;3.98;78.09
49393;BME280;35268;42.642;23.308;2022-12-04T02:50:56;94785.25;;;3.99;78.11
49393;BME280;35268;42.642;23.308;2022-12-04T02:53:28;94782.34;;;4.00;78.17
49393;BME280;35268;42.642;23.308;2022-12-04T02:56:08;94784.19;;;4.00;78.14
49393;BME280;35268;42.642;23.308;2022-12-04T02:58:45;94782.63;;;3.99;77.95
49393;BME280;35268;42.642;23.308;2022-12-04T03:01:13;94786.84;;;4.00;77.69
49393;BME280;35268;42.642;23.308;2022-12-04T03:03:53;94787.88;;;3.99;78.02
49393;BME280;35268;42.642;23.308;2022-12-04T03:06:21;94785.50;;;3.97;77.94
49393;BME280;35268;42.642;23.308;2022-12-04T03:08:54;94782.31;;;3.95;77.99
49393;BME280;35268;42.642;23.308;2022-12-04T03:11:20;94774.94;;;3.97;77.97
49393;BME280;35268;42.642;23.308;2022-12-04T03:13:54;94767.56;;;3.99;77.81
49393;BME280;35268;42.642;23.308;2022-12-04T03:16:28;94769.97;;;4.01;77.63
49393;BME280;35268;42.642;23.308;2022-12-04T03:19:04;94777.06;;;4.00;77.53
49393;BME280;35268;42.642;23.308;2022-12-04T03:21:34;94773.94;;;4.04;77.36
49393;BME280;35268;42.642;23.308;2022-12-04T03:29:19;94762.09;;;4.06;77.67
49393;BME280;35268;42.642;23.308;2022-12-04T03:32:14;94764.19;;;4.04;77.45
49393;BME280;35268;42.642;23.308;2022-12-04T03:38:11;94767.34;;;4.01;76.92
49393;BME280;35268;42.642;23.308;2022-12-04T03:40:28;94761.00;;;4.02;77.18
49393;BME280;35268;42.642;23.308;2022-12-04T03:43:03;94772.63;;;4.01;77.12
49393;BME280;35268;42.642;23.308;2022-12-04T03:45:53;94766.78;;;3.99;77.37
49393;BME280;35268;42.642;23.308;2022-12-04T03:51:06;94759.41;;;4.01;77.20
49393;BME280;35268;42.642;23.308;2022-12-04T03:53:38;94763.34;;;3.98;77.33
49393;BME280;35268;42.642;23.308;2022-12-04T03:56:13;94763.34;;;3.98;77.31
49393;BME280;35268;42.642;23.308;2022-12-04T03:58:43;94750.69;;;4.00;77.12
49393;BME280;35268;42.642;23.308;2022-12-04T04:01:11;94757.31;;;4.03;76.98
49393;BME280;35268;42.642;23.308;2022-12-04T04:03:48;94762.59;;;4.03;77.02
49393;BME280;35268;42.642;23.308;2022-12-04T04:06:23;94760.75;;;4.04;76.88
49393;BME280;35268;42.642;23.308;2022-12-04T04:08:52;94756.78;;;4.01;76.92
49393;BME280;35268;42.642;23.308;2022-12-04T04:11:59;94759.41;;;4.01;76.89
49393;BME280;35268;42.642;23.308;2022-12-04T04:14:54;94760.44;;;4.00;76.88
49393;BME280;35268;42.642;23.308;2022-12-04T04:17:44;94753.59;;;3.99;77.03
49393;BME280;35268;42.642;23.308;2022-12-04T04:20:44;94763.09;;;4.00;77.43
49393;BME280;35268;42.642;23.308;2022-12-04T04:23:34;94763.34;;;3.98;77.90
49393;BME280;35268;42.642;23.308;2022-12-04T04:26:21;94758.06;;;3.98;77.90
49393;BME280;35268;42.642;23.308;2022-12-04T04:28:47;94762.06;;;4.01;78.09
49393;BME280;35268;42.642;23.308;2022-12-04T04:36:54;94768.91;;;4.02;77.85
49393;BME280;35268;42.642;23.308;2022-12-04T04:42:01;94751.00;;;4.04;77.62
49393;BME280;35268;42.642;23.308;2022-12-04T04:44:51;94767.88;;;4.03;77.56
49393;BME280;35268;42.642;23.308;2022-12-04T04:47:27;94764.69;;;4.01;77.78
49393;BME280;35268;42.642;23.308;2022-12-04T04:49:55;94771.00;;;4.00;77.81
49393;BME280;35268;42.642;23.308;2022-12-04T04:52:23;94767.56;;;3.99;77.88
49393;BME280;35268;42.642;23.308;2022-12-04T04:54:49;94768.91;;;4.02;77.92
49393;BME280;35268;42.642;23.308;2022-12-04T04:57:25;94772.66;;;4.06;77.81
49393;BME280;35268;42.642;23.308;2022-12-04T04:59:51;94775.81;;;4.08;77.78
49393;BME280;35268;42.642;23.308;2022-12-04T05:02:16;94788.78;;;4.10;77.95
49393;BME280;35268;42.642;23.308;2022-12-04T05:04:42;94784.28;;;4.10;78.47
49393;BME280;35268;42.642;23.308;2022-12-04T05:07:07;94775.63;;;4.15;78.21
49393;BME280;35268;42.642;23.308;2022-12-04T05:09:33;94785.94;;;4.16;78.06
49393;BME280;35268;42.642;23.308;2022-12-04T05:11:58;94787.53;;;4.17;77.63
49393;BME280;35268;42.642;23.308;2022-12-04T05:14:24;94789.13;;;4.18;77.72
49393;BME280;35268;42.642;23.308;2022-12-04T05:16:49;94795.50;;;4.22;77.53
49393;BME280;35268;42.642;23.308;2022-12-04T05:19:15;94801.75;;;4.16;78.02
49393;BME280;35268;42.642;23.308;2022-12-04T05:21:59;94800.13;;;4.10;78.43
49393;BME280;35268;42.642;23.308;2022-12-04T05:24:24;94806.41;;;4.04;78.67
49393;BME280;35268;42.642;23.308;2022-12-04T05:26:50;94806.84;;;3.96;78.82
49393;BME280;35268;42.642;23.308;2022-12-04T05:29:15;94811.00;;;3.92;79.37
49393;BME280;35268;42.642;23.308;2022-12-04T05:31:41;94801.25;;;3.92;79.53
49393;BME280;35268;42.642;23.308;2022-12-04T05:34:09;94794.13;;;3.93;79.28
49393;BME280;35268;42.642;23.308;2022-12-04T05:36:35;94814.75;;;3.96;78.95
49393;BME280;35268;42.642;23.308;2022-12-04T05:39:00;94812.56;;;3.88;79.45
49393;BME280;35268;42.642;23.308;2022-12-04T05:41:25;94816.53;;;3.90;79.72
49393;BME280;35268;42.642;23.308;2022-12-04T05:43:51;94808.84;;;3.89;79.95
49393;BME280;35268;42.642;23.308;2022-12-04T05:46:16;94813.59;;;3.87;80.11
49393;BME280;35268;42.642;23.308;2022-12-04T05:48:42;94807.81;;;3.90;80.33
49393;BME280;35268;42.642;23.308;2022-12-04T05:51:08;94807.38;;;3.98;80.22
49393;BME280;35268;42.642;23.308;2022-12-04T05:53:34;94821.97;;;4.06;79.63
49393;BME280;35268;42.642;23.308;2022-12-04T05:56:01;94819.38;;;4.11;79.28
49393;BME280;35268;42.642;23.308;2022-12-04T05:58:27;94816.50;;;4.12;78.83
49393;BME280;35268;42.642;23.308;2022-12-04T06:00:53;94812.00;;;4.13;78.86
49393;BME280;35268;42.642;23.308;2022-12-04T06:03:18;94821.28;;;4.15;78.78
49393;BME280;35268;42.642;23.308;2022-12-04T06:05:44;94822.13;;;4.21;78.26
49393;BME280;35268;42.642;23.308;2022-12-04T06:08:10;94820.84;;;4.24;77.83
49393;BME280;35268;42.642;23.308;2022-12-04T06:10:35;94818.22;;;4.24;77.72
49393;BME280;35268;42.642;23.308;2022-12-04T06:13:01;94815.84;;;4.27;77.04
49393;BME280;35268;42.642;23.308;2022-12-04T06:15:26;94825.56;;;4.21;77.60
49393;BME280;35268;42.642;23.308;2022-12-04T06:17:51;94822.38;;;4.19;77.78
49393;BME280;35268;42.642;23.308;2022-12-04T06:20:17;94828.25;;;4.27;77.77
49393;BME280;35268;42.642;23.308;2022-12-04T06:22:43;94818.78;;;4.31;77.28
49393;BME280;35268;42.642;23.308;2022-12-04T06:25:09;94824.91;;;4.36;77.99
49393;BME280;35268;42.642;23.308;2022-12-04T06:27:34;94822.31;;;4.41;77.72
49393;BME280;35268;42.642;23.308;2022-12-04T06:30:00;94826.34;;;4.49;77.68
49393;BME280;35268;42.642;23.308;2022-12-04T06:32:26;94816.94;;;4.58;77.46
49393;BME280;35268;42.642;23.308;2022-12-04T06:34:53;94819.34;;;4.65;77.42
49393;BME280;35268;42.642;23.308;2022-12-04T06:37:20;94820.22;;;4.76;77.14
49393;BME280;35268;42.642;23.308;2022-12-04T06:39:46;94826.59;;;4.80;76.78
49393;BME280;35268;42.642;23.308;2022-12-04T06:42:11;94836.16;;;4.86;76.73
49393;BME280;35268;42.642;23.308;2022-12-04T06:44:37;94837.53;;;4.94;76.80
49393;BME280;35268;42.642;23.308;2022-12-04T06:47:02;94833.34;;;4.98;76.74
49393;BME280;35268;42.642;23.308;2022-12-04T06:49:28;94830.47;;;5.05;76.61
49393;BME280;35268;42.642;23.308;2022-12-04T06:51:53;94827.88;;;5.15;76.55
49393;BME280;35268;42.642;23.308;2022-12-04T06:54:19;94827.69;;;5.21;76.50
49393;BME280;35268;42.642;23.308;2022-12-04T06:56:44;94826.41;;;5.29;76.18
49393;BME280;35268;42.642;23.308;2022-12-04T06:59:10;94832.00;;;5.38;76.03
49393;BME280;35268;42.642;23.308;2022-12-04T07:01:35;94829.13;;;5.45;75.95
49393;BME280;35268;42.642;23.308;2022-12-04T07:04:02;94830.19;;;5.49;76.03
49393;BME280;35268;42.642;23.308;2022-12-04T07:06:30;94831.81;;;5.55;75.74
49393;BME280;35268;42.642;23.308;2022-12-04T07:08:59;94831.31;;;5.63;75.77
49393;BME280;35268;42.642;23.308;2022-12-04T07:11:25;94828.44;;;5.70;75.68
49393;BME280;35268;42.642;23.308;2022-12-04T07:13:51;94826.13;;;5.78;75.60
49393;BME280;35268;42.642;23.308;2022-12-04T07:16:19;94820.03;;;5.88;75.37
49393;BME280;35268;42.642;23.308;2022-12-04T07:18:45;94819.59;;;6.01;75.50
49393;BME280;35268;42.642;23.308;2022-12-04T07:21:14;94828.63;;;6.11;75.48
49393;BME280;35268;42.642;23.308;2022-12-04T07:23:40;94821.75;;;6.20;75.68
49393;BME280;35268;42.642;23.308;2022-12-04T07:26:08;94829.97;;;6.29;75.34
49393;BME280;35268;42.642;23.308;2022-12-04T07:28:34;94837.41;;;6.37;74.97
49393;BME280;35268;42.642;23.308;2022-12-04T07:31:11;94826.03;;;6.47;74.83
49393;BME280;35268;42.642;23.308;2022-12-04T07:33:36;94821.56;;;6.52;74.39
49393;BME280;35268;42.642;23.308;2022-12-04T07:36:05;94824.75;;;6.59;74.07
49393;BME280;35268;42.642;23.308;2022-12-04T07:38:31;94833.25;;;6.72;73.86
49393;BME280;35268;42.642;23.308;2022-12-04T07:40:58;94832.41;;;6.81;73.07
49393;BME280;35268;42.642;23.308;2022-12-04T07:43:24;94836.66;;;6.88;72.86
49393;BME280;35268;42.642;23.308;2022-12-04T07:45:50;94832.94;;;6.94;72.66
49393;BME280;35268;42.642;23.308;2022-12-04T07:48:16;94827.13;;;6.97;72.21
49393;BME280;35268;42.642;23.308;2022-12-04T07:50:42;94825.00;;;7.04;72.27
49393;BME280;35268;42.642;23.308;2022-12-04T07:53:07;94832.16;;;7.09;72.08
49393;BME280;35268;42.642;23.308;2022-12-04T07:55:33;94825.25;;;7.18;71.53
49393;BME280;35268;42.642;23.308;2022-12-04T07:57:58;94818.88;;;7.24;71.51
49393;BME280;35268;42.642;23.308;2022-12-04T08:00:24;94816.75;;;7.26;71.42
49393;BME280;35268;42.642;23.308;2022-12-04T08:02:49;94825.75;;;7.35;70.69
49393;BME280;35268;42.642;23.308;2022-12-04T08:05:15;94834.25;;;7.32;70.17
49393;BME280;35268;42.642;23.308;2022-12-04T08:07:40;94824.97;;;7.35;69.84
49393;BME280;35268;42.642;23.308;2022-12-04T08:10:06;94831.03;;;7.40;69.75
49393;BME280;35268;42.642;23.308;2022-12-04T08:12:32;94825.22;;;7.43;69.65
49393;BME280;35268;42.642;23.308;2022-12-04T08:14:58;94822.53;;;7.49;69.11
49393;BME280;35268;42.642;23.308;2022-12-04T08:17:23;94827.84;;;7.54;68.74
49393;BME280;35268;42.642;23.308;2022-12-04T08:19:49;94815.88;;;7.61;68.77
49393;BME280;35268;42.642;23.308;2022-12-04T08:22:14;94813.97;;;7.67;68.84
49393;BME280;35268;42.642;23.308;2022-12-04T08:24:40;94809.19;;;7.74;68.41
49393;BME280;35268;42.642;23.308;2022-12-04T08:27:06;94825.59;;;7.81;68.01
49393;BME280;35268;42.642;23.308;2022-12-04T08:29:31;94824.28;;;7.79;68.00
49393;BME280;35268;42.642;23.308;2022-12-04T08:31:57;94825.06;;;7.84;67.28
49393;BME280;35268;42.642;23.308;2022-12-04T08:34:23;94825.59;;;7.92;66.38
49393;BME280;35268;42.642;23.308;2022-12-04T08:36:48;94818.09;;;7.99;66.48
49393;BME280;35268;42.642;23.308;2022-12-04T08:39:14;94817.56;;;8.02;66.26
49393;BME280;35268;42.642;23.308;2022-12-04T08:41:39;94820.72;;;8.09;66.18
49393;BME280;35268;42.642;23.308;2022-12-04T08:44:05;94826.28;;;8.08;65.74
49393;BME280;35268;42.642;23.308;2022-12-04T08:46:30;94815.13;;;8.11;65.40
49393;BME280;35268;42.642;23.308;2022-12-04T08:48:56;94826.78;;;8.15;65.36
49393;BME280;35268;42.642;23.308;2022-12-04T08:51:24;94832.91;;;8.15;65.14
49393;BME280;35268;42.642;23.308;2022-12-04T08:53:54;94819.34;;;8.17;64.90
49393;BME280;35268;42.642;23.308;2022-12-04T08:56:20;94830.69;;;8.28;66.26
49393;BME280;35268;42.642;23.308;2022-12-04T08:58:45;94825.63;;;8.41;67.58
49393;BME280;35268;42.642;23.308;2022-12-04T09:01:12;94815.97;;;8.56;67.16
49393;BME280;35268;42.642;23.308;2022-12-04T09:03:38;94804.19;;;8.67;67.25
49393;BME280;35268;42.642;23.308;2022-12-04T09:06:05;94794.00;;;8.79;66.28
49393;BME280;35268;42.642;23.308;2022-12-04T09:08:32;94792.63;;;8.82;65.75
49393;BME280;35268;42.642;23.308;2022-12-04T09:11:05;94801.88;;;8.90;64.97
49393;BME280;35268;42.642;23.308;2022-12-04T09:13:30;94806.59;;;8.98;64.03
49393;BME280;35268;42.642;23.308;2022-12-04T09:15:56;94798.03;;;9.06;63.67
49393;BME280;35268;42.642;23.308;2022-12-04T09:18:21;94791.06;;;9.10;62.91
49393;BME280;35268;42.642;23.308;2022-12-04T09:20:58;94782.75;;;9.17;62.03
49393;BME280;35268;42.642;23.308;2022-12-04T09:23:24;94786.94;;;9.23;62.09
49393;BME280;35268;42.642;23.308;2022-12-04T09:25:50;94768.22;;;9.33;61.50
49393;BME280;35268;42.642;23.308;2022-12-04T09:28:15;94766.34;;;9.34;60.79
49393;BME280;35268;42.642;23.308;2022-12-04T09:30:41;94770.34;;;9.36;60.88
49393;BME280;35268;42.642;23.308;2022-12-04T09:33:06;94772.56;;;9.48;60.87
49393;BME280;35268;42.642;23.308;2022-12-04T09:35:32;94769.78;;;9.58;60.77
49393;BME280;35268;42.642;23.308;2022-12-04T09:37:58;94776.31;;;9.71;60.36
49393;BME280;35268;42.642;23.308;2022-12-04T09:40:29;94764.97;;;9.84;59.38
49393;BME280;35268;42.642;23.308;2022-12-04T09:43:01;94765.47;;;9.87;60.05
49393;BME280;35268;42.642;23.308;2022-12-04T09:45:34;94756.56;;;9.96;60.30
49393;BME280;35268;42.642;23.308;2022-12-04T09:48:09;94771.16;;;9.99;60.10
49393;BME280;35268;42.642;23.308;2022-12-04T09:50:43;94746.91;;;10.00;59.48
49393;BME280;35268;42.642;23.308;2022-12-04T09:53:13;94745.72;;;10.12;59.77
49393;BME280;35268;42.642;23.308;2022-12-04T09:58:27;94748.31;;;10.36;58.91
49393;BME280;35268;42.642;23.308;2022-12-04T10:00:57;94733.97;;;10.32;58.81
49393;BME280;35268;42.642;23.308;2022-12-04T10:03:28;94723.16;;;10.42;58.83
49393;BME280;35268;42.642;23.308;2022-12-04T10:08:35;94718.38;;;10.58;58.44
49393;BME280;35268;42.642;23.308;2022-12-04T10:27:09;94681.06;;;10.58;57.97
49393;BME280;35268;42.642;23.308;2022-12-04T10:29:37;94678.44;;;10.39;57.89
49393;BME280;35268;42.642;23.308;2022-12-04T10:32:24;94695.59;;;10.14;58.48
49393;BME280;35268;42.642;23.308;2022-12-04T10:34:57;94686.91;;;9.89;59.34
49393;BME280;35268;42.642;23.308;2022-12-04T10:37:25;94683.94;;;9.72;59.81
49393;BME280;35268;42.642;23.308;2022-12-04T10:40:07;94686.22;;;9.59;60.61
49393;BME280;35268;42.642;23.308;2022-12-04T10:42:41;94678.09;;;9.51;60.72
49393;BME280;35268;42.642;23.308;2022-12-04T10:45:11;94671.59;;;9.38;61.20
49393;BME280;35268;42.642;23.308;2022-12-04T10:47:44;94677.03;;;9.28;62.01
49393;BME280;35268;42.642;23.308;2022-12-04T10:50:15;94676.25;;;9.27;61.87
49393;BME280;35268;42.642;23.308;2022-12-04T10:52:41;94690.94;;;9.19;61.97
49393;BME280;35268;42.642;23.308;2022-12-04T10:55:07;94675.28;;;9.18;61.76
49393;BME280;35268;42.642;23.308;2022-12-04T10:57:41;94691.81;;;9.15;61.70
49393;BME280;35268;42.642;23.308;2022-12-04T11:02:50;94692.66;;;9.10;61.65
49393;BME280;35268;42.642;23.308;2022-12-04T11:05:44;94690.41;;;8.98;62.17
49393;BME280;35268;42.642;23.308;2022-12-04T11:08:21;94674.72;;;8.97;62.01
49393;BME280;35268;42.642;23.308;2022-12-04T11:10:58;94680.88;;;8.92;61.80
49393;BME280;35268;42.642;23.308;2022-12-04T11:13:24;94681.44;;;8.89;62.16
49393;BME280;35268;42.642;23.308;2022-12-04T11:15:53;94680.41;;;8.85;62.32
49393;BME280;35268;42.642;23.308;2022-12-04T11:18:22;94678.84;;;8.84;62.63
49393;BME280;35268;42.642;23.308;2022-12-04T11:23:25;94681.22;;;8.86;62.50
49393;BME280;35268;42.642;23.308;2022-12-04T11:25:55;94685.78;;;8.80;62.79
49393;BME280;35268;42.642;23.308;2022-12-04T11:28:25;94684.81;;;8.71;62.77
49393;BME280;35268;42.642;23.308;2022-12-04T11:30:53;94679.03;;;8.63;63.13
49393;BME280;35268;42.642;23.308;2022-12-04T11:33:42;94665.78;;;8.58;63.15
49393;BME280;35268;42.642;23.308;2022-12-04T11:36:19;94664.22;;;8.57;62.99
49393;BME280;35268;42.642;23.308;2022-12-04T11:38:46;94666.47;;;8.45;63.41
49393;BME280;35268;42.642;23.308;2022-12-04T11:41:27;94676.84;;;8.41;63.98
49393;BME280;35268;42.642;23.308;2022-12-04T11:43:53;94683.50;;;8.39;63.95
49393;BME280;35268;42.642;23.308;2022-12-04T11:46:24;94677.16;;;8.35;64.13
49393;BME280;35268;42.642;23.308;2022-12-04T11:48:51;94674.84;;;8.23;64.31
49393;BME280;35268;42.642;23.308;2022-12-04T11:51:57;94685.81;;;8.11;65.03
49393;BME280;35268;42.642;23.308;2022-12-04T11:57:09;94678.41;;;8.08;65.52
49393;BME280;35268;42.642;23.308;2022-12-04T11:59:54;94685.56;;;8.08;65.72
49393;BME280;35268;42.642;23.308;2022-12-04T12:02:34;94671.44;;;8.17;65.68
49393;BME280;35268;42.642;23.308;2022-12-04T12:15:50;94682.66;;;8.73;64.22
49393;BME280;35268;42.642;23.308;2022-12-04T12:21:07;94689.38;;;8.94;62.95
49393;BME280;35268;42.642;23.308;2022-12-04T12:23:42;94672.28;;;9.00;62.65
49393;BME280;35268;42.642;23.308;2022-12-04T12:26:14;94679.19;;;9.01;62.27
49393;BME280;35268;42.642;23.308;2022-12-04T12:37:01;94681.69;;;9.17;61.09
49393;BME280;35268;42.642;23.308;2022-12-04T12:39:49;94684.63;;;9.15;61.41
49393;BME280;35268;42.642;23.308;2022-12-04T12:42:24;94689.16;;;9.15;61.20
49393;BME280;35268;42.642;23.308;2022-12-04T12:44:59;94687.13;;;9.07;61.27
49393;BME280;35268;42.642;23.308;2022-12-04T12:47:30;94682.69;;;8.97;61.43
49393;BME280;35268;42.642;23.308;2022-12-04T12:50:05;94683.47;;;8.97;61.13
49393;BME280;35268;42.642;23.308;2022-12-04T12:52:37;94684.06;;;8.94;61.31
49393;BME280;35268;42.642;23.308;2022-12-04T12:55:59;94672.41;;;8.90;61.56
49393;BME280;35268;42.642;23.308;2022-12-04T12:58:11;94680.13;;;8.87;61.28
49393;BME280;35268;42.642;23.308;2022-12-04T13:00:44;94683.13;;;8.80;61.72
49393;BME280;35268;42.642;23.308;2022-12-04T13:03:29;94683.50;;;8.68;61.77
49393;BME280;35268;42.642;23.308;2022-12-04T13:06:03;94680.72;;;8.54;62.36
49393;BME280;35268;42.642;23.308;2022-12-04T13:08:34;94690.88;;;8.47;62.38
49393;BME280;35268;42.642;23.308;2022-12-04T13:11:12;94682.97;;;8.37;62.68
49393;BME280;35268;42.642;23.308;2022-12-04T13:14:00;94677.16;;;8.30;63.01
49393;BME280;35268;42.642;23.308;2022-12-04T13:16:36;94671.09;;;8.24;63.25
49393;BME280;35268;42.642;23.308;2022-12-04T13:19:24;94678.34;;;8.18;63.60
49393;BME280;35268;42.642;23.308;2022-12-04T13:21:56;94671.75;;;8.11;63.64
49393;BME280;35268;42.642;23.308;2022-12-04T13:40:57;94676.81;;;8.07;63.35
49393;BME280;35268;42.642;23.308;2022-12-04T13:43:29;94680.56;;;8.06;63.45
49393;BME280;35268;42.642;23.308;2022-12-04T13:45:59;94685.06;;;8.06;63.36
49393;BME280;35268;42.642;23.308;2022-12-04T13:48:38;94684.50;;;8.09;63.00
49393;BME280;35268;42.642;23.308;2022-12-04T13:53:40;94687.41;;;8.12;63.02
49393;BME280;35268;42.642;23.308;2022-12-04T13:56:22;94691.19;;;8.06;62.96
49393;BME280;35268;42.642;23.308;2022-12-04T13:58:58;94689.63;;;8.00;62.90
49393;BME280;35268;42.642;23.308;2022-12-04T14:01:31;94692.56;;;7.98;62.91
49393;BME280;35268;42.642;23.308;2022-12-04T14:04:00;94706.59;;;7.99;62.77
49393;BME280;35268;42.642;23.308;2022-12-04T14:06:37;94701.34;;;7.94;62.83
49393;BME280;35268;42.642;23.308;2022-12-04T14:09:20;94692.38;;;7.84;63.11
49393;BME280;35268;42.642;23.308;2022-12-04T14:11:52;94687.31;;;7.83;63.12
49393;BME280;35268;42.642;23.308;2022-12-04T14:14:26;94689.72;;;7.84;63.23
49393;BME280;35268;42.642;23.308;2022-12-04T14:16:54;94686.56;;;7.77;63.29
49393;BME280;35268;42.642;23.308;2022-12-04T14:19:40;94680.28;;;7.63;63.53
49393;BME280;35268;42.642;23.308;2022-12-04T14:22:44;94692.22;;;7.60;63.82
49393;BME280;35268;42.642;23.308;2022-12-04T14:27:41;94697.84;;;7.49;64.35
49393;BME280;35268;42.642;23.308;2022-12-04T14:30:28;94713.28;;;7.41;64.24
49393;BME280;35268;42.642;23.308;2022-12-04T14:33:14;94701.38;;;7.34;64.73
49393;BME280;35268;42.642;23.308;2022-12-04T14:35:48;94686.53;;;7.33;65.08
49393;BME280;35268;42.642;23.308;2022-12-04T14:38:20;94699.03;;;7.27;65.38
49393;BME280;35268;42.642;23.308;2022-12-04T14:40:48;94700.63;;;7.18;65.65
49393;BME280;35268;42.642;23.308;2022-12-04T14:43:18;94708.63;;;7.13;65.97
49393;BME280;35268;42.642;23.308;2022-12-04T14:45:51;94710.22;;;7.09;66.12
49393;BME280;35268;42.642;23.308;2022-12-04T14:51:21;94700.19;;;6.85;66.82
49393;BME280;35268;42.642;23.308;2022-12-04T14:59:18;94716.38;;;6.63;67.65
49393;BME280;35268;42.642;23.308;2022-12-04T15:01:45;94711.38;;;6.56;68.25
49393;BME280;35268;42.642;23.308;2022-12-04T15:04:26;94723.03;;;6.50;68.31
49393;BME280;35268;42.642;23.308;2022-12-04T15:06:53;94714.56;;;6.48;68.90
49393;BME280;35268;42.642;23.308;2022-12-04T15:09:20;94711.09;;;6.42;69.11
49393;BME280;35268;42.642;23.308;2022-12-04T15:12:20;94714.53;;;6.43;69.10